createdAt,value
2019-04-16T00:00:14.066Z,52.92
2019-04-16T00:01:14.999Z,53.03
2019-04-16T00:02:18.553Z,53.54
2019-04-16T00:03:15.010Z,53.23
2019-04-16T00:04:14.003Z,53.03
2019-04-16T00:05:14.016Z,52.61
2019-04-16T00:06:13.992Z,52.72
2019-04-16T00:07:13.975Z,52.92
2019-04-16T00:08:27.360Z,53.23
2019-04-16T00:09:14.950Z,53.95
2019-04-16T00:10:13.961Z,53.33
2019-04-16T00:11:13.921Z,53.23
2019-04-16T00:12:13.929Z,54.46
2019-04-16T00:13:13.900Z,53.56
2019-04-16T00:14:13.943Z,53.23
2019-04-16T00:15:13.912Z,53.77
2019-04-16T00:16:13.864Z,54.79
2019-04-16T00:17:15.941Z,53.44
2019-04-16T00:18:18.475Z,53.77
2019-04-16T00:19:14.842Z,54.08
2019-04-16T00:20:13.840Z,54.18
2019-04-16T00:21:13.876Z,54.90
2019-04-16T00:22:13.800Z,53.46
2019-04-16T00:23:13.798Z,53.46
2019-04-16T00:24:18.200Z,53.66
2019-04-16T00:25:14.777Z,54.49
2019-04-16T00:26:14.179Z,53.77
2019-04-16T00:27:13.754Z,53.25
2019-04-16T00:28:13.738Z,54.18
2019-04-16T00:29:13.722Z,54.69
2019-04-16T00:30:13.762Z,54.49
2019-04-16T00:31:13.736Z,53.56
2019-04-16T00:32:13.706Z,54.69
2019-04-16T00:33:13.688Z,54.90
2019-04-16T00:34:14.432Z,54.18
2019-04-16T00:35:15.664Z,53.56
2019-04-16T00:36:15.357Z,54.38
2019-04-16T00:37:13.655Z,53.17
2019-04-16T00:38:13.625Z,54.59
2019-04-16T00:39:13.614Z,53.79
2019-04-16T00:40:13.632Z,53.25
2019-04-16T00:41:13.591Z,54.79
2019-04-16T00:42:13.629Z,54.28
2019-04-16T00:43:13.568Z,54.61
2019-04-16T00:44:13.564Z,54.82
2019-04-16T00:45:13.541Z,54.79
2019-04-16T00:46:13.546Z,55.00
2019-04-16T00:47:13.559Z,55.10
2019-04-16T00:48:13.508Z,54.82
2019-04-16T00:49:13.508Z,55.23
2019-04-16T00:50:13.490Z,55.00
2019-04-16T00:51:13.478Z,54.82
2019-04-16T00:52:13.485Z,54.49
2019-04-16T00:53:13.483Z,54.51
2019-04-16T00:54:13.456Z,54.69
2019-04-16T00:55:14.681Z,55.23
2019-04-16T00:56:16.069Z,55.02
2019-04-16T00:57:17.637Z,54.00
2019-04-16T00:58:13.397Z,54.51
2019-04-16T00:59:13.398Z,54.82
2019-04-16T01:00:13.383Z,54.72
2019-04-16T01:01:13.380Z,55.13
2019-04-16T01:02:13.378Z,55.02
2019-04-16T01:03:13.345Z,54.43
2019-04-16T01:04:13.349Z,54.92
2019-04-16T01:05:13.322Z,54.95
2019-04-16T01:06:13.311Z,55.05
2019-04-16T01:07:13.315Z,54.85
2019-04-16T01:08:13.312Z,54.53
2019-04-16T01:09:13.275Z,54.74
2019-04-16T01:10:13.267Z,55.77
2019-04-16T01:11:13.264Z,55.05
2019-04-16T01:12:13.264Z,54.85
2019-04-16T01:13:13.257Z,55.87
2019-04-16T01:14:13.235Z,55.36
2019-04-16T01:15:13.210Z,55.57
2019-04-16T01:16:13.199Z,55.05
2019-04-16T01:17:13.190Z,55.87
2019-04-16T01:18:13.194Z,55.87
2019-04-16T01:19:13.167Z,55.77
2019-04-16T01:20:13.234Z,56.08
2019-04-16T01:21:14.269Z,55.77
2019-04-16T01:22:15.826Z,55.87
2019-04-16T01:23:17.526Z,55.15
2019-04-16T01:24:14.114Z,55.18
2019-04-16T01:25:13.108Z,55.87
2019-04-16T01:26:13.089Z,56.21
2019-04-16T01:27:13.096Z,56.62
2019-04-16T01:28:13.093Z,55.49
2019-04-16T01:29:13.057Z,55.79
2019-04-16T01:30:13.065Z,56.10
2019-04-16T01:31:13.068Z,56.31
2019-04-16T01:32:13.028Z,56.31
2019-04-16T01:33:14.637Z,56.62
2019-04-16T01:34:15.326Z,54.77
2019-04-16T01:35:12.993Z,56.00
2019-04-16T01:36:12.979Z,55.79
2019-04-16T01:37:12.966Z,56.31
2019-04-16T01:38:12.977Z,56.00
2019-04-16T01:39:17.988Z,55.69
2019-04-16T01:40:18.453Z,54.97
2019-04-16T01:41:13.930Z,55.18
2019-04-16T01:42:12.915Z,56.62
2019-04-16T01:43:12.936Z,55.49
2019-04-16T01:44:12.910Z,54.87
2019-04-16T01:45:12.890Z,55.18
2019-04-16T01:46:12.879Z,55.08
2019-04-16T01:47:12.860Z,55.38
2019-04-16T01:48:12.885Z,55.41
2019-04-16T01:49:12.843Z,56.13
2019-04-16T01:50:14.035Z,54.77
2019-04-16T01:51:15.543Z,56.10
2019-04-16T01:52:12.808Z,55.90
2019-04-16T01:53:12.813Z,56.72
2019-04-16T01:54:12.786Z,54.77
2019-04-16T01:55:12.774Z,56.00
2019-04-16T01:56:12.776Z,55.38
2019-04-16T01:57:12.769Z,54.97
2019-04-16T01:58:12.737Z,55.93
2019-04-16T01:59:12.743Z,55.79
2019-04-16T02:00:12.732Z,56.23
2019-04-16T02:01:12.707Z,55.90
2019-04-16T02:02:15.587Z,55.82
2019-04-16T02:03:17.519Z,55.62
2019-04-16T02:04:13.688Z,55.38
2019-04-16T02:05:12.665Z,55.82
2019-04-16T02:06:12.653Z,55.62
2019-04-16T02:07:12.642Z,55.82
2019-04-16T02:08:12.634Z,55.72
2019-04-16T02:09:22.370Z,55.82
2019-04-16T02:10:13.607Z,56.44
2019-04-16T02:11:12.608Z,55.62
2019-04-16T02:12:13.483Z,55.72
2019-04-16T02:13:14.960Z,55.30
2019-04-16T02:14:14.546Z,56.44
2019-04-16T02:15:12.551Z,56.44
2019-04-16T02:16:12.546Z,56.23
2019-04-16T02:17:12.557Z,55.30
2019-04-16T02:18:12.543Z,55.21
2019-04-16T02:19:12.523Z,56.44
2019-04-16T02:20:12.505Z,56.13
2019-04-16T02:21:12.485Z,56.67
2019-04-16T02:22:13.923Z,55.54
2019-04-16T02:23:13.587Z,56.05
2019-04-16T02:24:12.475Z,55.74
2019-04-16T02:25:12.523Z,56.98
2019-04-16T02:26:12.525Z,56.15
2019-04-16T02:27:12.434Z,55.85
2019-04-16T02:28:12.627Z,55.74
2019-04-16T02:29:12.440Z,56.05
2019-04-16T02:30:12.385Z,56.36
2019-04-16T02:31:15.323Z,56.67
2019-04-16T02:32:12.377Z,56.46
2019-04-16T02:33:12.352Z,55.64
2019-04-16T02:34:12.358Z,55.87
2019-04-16T02:35:12.329Z,56.36
2019-04-16T02:36:12.324Z,56.38
2019-04-16T02:37:12.317Z,55.43
2019-04-16T02:38:13.823Z,57.01
2019-04-16T02:39:12.305Z,55.85
2019-04-16T02:40:16.614Z,56.70
2019-04-16T02:41:13.273Z,56.08
2019-04-16T02:42:12.288Z,57.42
2019-04-16T02:43:12.243Z,56.59
2019-04-16T02:44:15.913Z,56.80
2019-04-16T02:45:12.419Z,56.18
2019-04-16T02:46:12.219Z,55.87
2019-04-16T02:47:12.227Z,56.08
2019-04-16T02:48:16.692Z,56.49
2019-04-16T02:49:13.222Z,56.80
2019-04-16T02:50:12.182Z,56.49
2019-04-16T02:51:12.175Z,55.77
2019-04-16T02:52:16.810Z,56.29
2019-04-16T02:53:13.145Z,56.59
2019-04-16T02:54:12.131Z,56.59
2019-04-16T02:55:12.137Z,56.38
2019-04-16T02:56:17.056Z,56.29
2019-04-16T02:57:13.094Z,56.18
2019-04-16T02:58:12.104Z,56.49
2019-04-16T02:59:13.489Z,55.46
2019-04-16T03:00:12.107Z,55.87
2019-04-16T03:01:12.052Z,56.59
2019-04-16T03:02:12.038Z,54.94
2019-04-16T03:03:12.033Z,56.29
2019-04-16T03:04:12.028Z,55.15
2019-04-16T03:05:12.022Z,54.94
2019-04-16T03:06:12.011Z,56.29
2019-04-16T03:07:12.035Z,56.38
2019-04-16T03:08:12.142Z,56.80
2019-04-16T03:09:12.088Z,56.10
2019-04-16T03:10:13.447Z,56.38
2019-04-16T03:11:13.733Z,56.82
2019-04-16T03:12:12.937Z,56.62
2019-04-16T03:13:11.927Z,56.52
2019-04-16T03:14:11.899Z,57.03
2019-04-16T03:15:11.927Z,56.52
2019-04-16T03:16:11.905Z,56.41
2019-04-16T03:17:11.906Z,57.54
2019-04-16T03:18:15.225Z,57.44
2019-04-16T03:19:11.866Z,57.34
2019-04-16T03:20:12.050Z,57.44
2019-04-16T03:21:11.842Z,56.82
2019-04-16T03:22:11.828Z,57.44
2019-04-16T03:23:11.801Z,57.44
2019-04-16T03:24:11.806Z,57.88
2019-04-16T03:25:14.028Z,57.86
2019-04-16T03:26:16.381Z,57.78
2019-04-16T03:27:12.782Z,57.98
2019-04-16T03:28:11.747Z,57.68
2019-04-16T03:29:11.773Z,57.98
2019-04-16T03:30:11.768Z,57.78
2019-04-16T03:31:20.329Z,57.37
2019-04-16T03:32:15.022Z,57.26
2019-04-16T03:33:14.237Z,57.16
2019-04-16T03:34:11.686Z,56.13
2019-04-16T03:35:11.676Z,57.26
2019-04-16T03:36:11.677Z,57.47
2019-04-16T03:37:11.761Z,57.26
2019-04-16T03:38:11.698Z,56.34
2019-04-16T03:39:13.720Z,57.68
2019-04-16T03:40:17.201Z,57.78
2019-04-16T03:41:12.620Z,57.47
2019-04-16T03:42:11.594Z,57.06
2019-04-16T03:43:11.585Z,57.50
2019-04-16T03:44:11.602Z,57.81
2019-04-16T03:45:11.562Z,57.98
2019-04-16T03:46:13.011Z,58.09
2019-04-16T03:47:11.545Z,58.09
2019-04-16T03:48:11.548Z,57.91
2019-04-16T03:49:11.522Z,58.50
2019-04-16T03:50:11.517Z,57.91
2019-04-16T03:51:11.513Z,57.70
2019-04-16T03:52:11.511Z,58.11
2019-04-16T03:53:16.423Z,58.32
2019-04-16T03:54:12.509Z,57.91
2019-04-16T03:55:11.504Z,57.60
2019-04-16T03:56:11.464Z,57.91
2019-04-16T03:57:11.434Z,57.91
2019-04-16T03:58:11.506Z,57.60
2019-04-16T03:59:12.325Z,58.01
2019-04-16T04:00:12.856Z,57.70
2019-04-16T04:01:14.138Z,57.50
2019-04-16T04:02:11.402Z,57.32
2019-04-16T04:03:11.367Z,58.94
2019-04-16T04:04:11.355Z,57.62
2019-04-16T04:05:11.367Z,58.55
2019-04-16T04:06:11.390Z,59.38
2019-04-16T04:07:12.016Z,57.62
2019-04-16T04:08:16.097Z,58.25
2019-04-16T04:09:12.316Z,57.42
2019-04-16T04:10:11.295Z,58.14
2019-04-16T04:11:11.310Z,58.35
2019-04-16T04:12:13.338Z,58.25
2019-04-16T04:13:11.259Z,58.25
2019-04-16T04:14:11.247Z,58.04
2019-04-16T04:15:11.232Z,57.62
2019-04-16T04:16:11.238Z,58.35
2019-04-16T04:17:11.233Z,57.93
2019-04-16T04:18:12.639Z,58.55
2019-04-16T04:19:14.083Z,57.73
2019-04-16T04:20:11.189Z,57.62
2019-04-16T04:21:11.283Z,57.73
2019-04-16T04:22:11.227Z,58.04
2019-04-16T04:23:11.178Z,58.45
2019-04-16T04:24:11.135Z,58.65
2019-04-16T04:25:11.129Z,58.65
2019-04-16T04:26:11.114Z,58.14
2019-04-16T04:27:14.411Z,58.14
2019-04-16T04:28:12.112Z,57.32
2019-04-16T04:29:11.136Z,57.32
2019-04-16T04:30:11.069Z,58.04
2019-04-16T04:31:11.127Z,57.83
2019-04-16T04:32:11.064Z,57.83
2019-04-16T04:33:11.076Z,57.73
2019-04-16T04:34:14.858Z,57.83
2019-04-16T04:35:12.040Z,57.93
2019-04-16T04:36:11.008Z,57.52
2019-04-16T04:37:11.014Z,57.52
2019-04-16T04:38:11.010Z,57.62
2019-04-16T04:39:14.924Z,57.73
2019-04-16T04:40:12.965Z,57.42
2019-04-16T04:41:10.962Z,57.62
2019-04-16T04:42:10.957Z,58.04
2019-04-16T04:43:10.931Z,57.73
2019-04-16T04:44:10.919Z,57.01
2019-04-16T04:45:10.934Z,56.90
2019-04-16T04:46:14.400Z,56.59
2019-04-16T04:47:10.911Z,57.11
2019-04-16T04:48:11.949Z,57.32
2019-04-16T04:49:10.863Z,57.73
2019-04-16T04:50:10.859Z,58.14
2019-04-16T04:51:10.863Z,57.52
2019-04-16T04:52:13.631Z,58.14
2019-04-16T04:53:10.834Z,57.83
2019-04-16T04:54:10.829Z,57.73
2019-04-16T04:55:10.794Z,58.97
2019-04-16T04:56:10.808Z,58.65
2019-04-16T04:57:10.803Z,57.62
2019-04-16T04:58:10.818Z,58.04
2019-04-16T04:59:10.759Z,57.83
2019-04-16T05:00:10.760Z,59.28
2019-04-16T05:01:13.351Z,58.55
2019-04-16T05:02:13.983Z,58.25
2019-04-16T05:03:12.495Z,57.62
2019-04-16T05:04:10.943Z,58.14
2019-04-16T05:05:10.987Z,57.93
2019-04-16T05:06:10.698Z,58.14
2019-04-16T05:07:10.670Z,57.60
2019-04-16T05:08:10.706Z,58.04
2019-04-16T05:09:10.643Z,58.84
2019-04-16T05:10:10.645Z,57.81
2019-04-16T05:11:12.506Z,57.70
2019-04-16T05:12:10.616Z,58.11
2019-04-16T05:13:10.620Z,59.97
2019-04-16T05:14:10.651Z,57.91
2019-04-16T05:15:10.588Z,58.22
2019-04-16T05:16:10.593Z,58.22
2019-04-16T05:17:10.563Z,57.60
2019-04-16T05:18:10.967Z,57.81
2019-04-16T05:19:13.861Z,56.77
2019-04-16T05:20:14.845Z,56.57
2019-04-16T05:21:11.790Z,57.60
2019-04-16T05:22:10.499Z,57.37
2019-04-16T05:23:10.529Z,57.16
2019-04-16T05:24:10.491Z,57.47
2019-04-16T05:25:10.486Z,57.78
2019-04-16T05:26:10.577Z,56.95
2019-04-16T05:27:10.459Z,57.57
2019-04-16T05:28:12.110Z,56.21
2019-04-16T05:29:10.452Z,56.31
2019-04-16T05:30:10.416Z,54.97
2019-04-16T05:31:10.412Z,56.31
2019-04-16T05:32:10.434Z,55.90
2019-04-16T05:33:10.381Z,54.97
2019-04-16T05:34:10.623Z,55.18
2019-04-16T05:35:10.869Z,54.87
2019-04-16T05:36:10.964Z,54.94
2019-04-16T05:37:10.355Z,54.85
2019-04-16T05:38:10.325Z,55.66
2019-04-16T05:39:10.331Z,55.15
2019-04-16T05:40:10.317Z,54.53
2019-04-16T05:41:13.450Z,55.05
2019-04-16T05:42:10.286Z,55.26
2019-04-16T05:43:10.295Z,53.81
2019-04-16T05:44:10.294Z,55.02
2019-04-16T05:45:10.265Z,53.81
2019-04-16T05:46:10.263Z,54.41
2019-04-16T05:47:10.234Z,54.10
2019-04-16T05:48:10.232Z,54.20
2019-04-16T05:49:10.229Z,54.61
2019-04-16T05:50:10.203Z,55.13
2019-04-16T05:51:10.190Z,55.10
2019-04-16T05:52:10.171Z,54.90
2019-04-16T05:53:12.801Z,53.56
2019-04-16T05:54:12.382Z,53.64
2019-04-16T05:55:10.145Z,54.38
2019-04-16T05:56:10.131Z,53.77
2019-04-16T05:57:10.153Z,54.56
2019-04-16T05:58:10.128Z,53.53
2019-04-16T05:59:10.163Z,53.33
2019-04-16T06:00:10.509Z,52.09
2019-04-16T06:01:10.455Z,52.89
2019-04-16T06:02:10.083Z,52.28
2019-04-16T06:03:10.067Z,53.00
2019-04-16T06:04:10.093Z,51.87
2019-04-16T06:05:10.128Z,52.17
2019-04-16T06:06:10.046Z,52.76
2019-04-16T06:07:10.013Z,53.08
2019-04-16T06:08:10.271Z,51.84
2019-04-16T06:09:12.235Z,52.36
2019-04-16T06:10:10.005Z,52.36
2019-04-16T06:11:09.965Z,51.31
2019-04-16T06:12:09.970Z,50.38
2019-04-16T06:13:12.636Z,51.61
2019-04-16T06:14:09.930Z,51.61
2019-04-16T06:15:09.943Z,51.07
2019-04-16T06:16:09.950Z,51.39
2019-04-16T06:17:09.954Z,50.67
2019-04-16T06:18:09.903Z,50.15
2019-04-16T06:19:11.414Z,51.69
2019-04-16T06:20:09.874Z,51.18
2019-04-16T06:21:10.045Z,51.36
2019-04-16T06:22:09.849Z,51.36
2019-04-16T06:23:09.838Z,52.08
2019-04-16T06:24:09.822Z,51.34
2019-04-16T06:25:11.091Z,50.01
2019-04-16T06:26:14.560Z,49.90
2019-04-16T06:27:10.822Z,48.67
2019-04-16T06:28:09.788Z,50.62
2019-04-16T06:29:09.777Z,50.39
2019-04-16T06:30:09.782Z,49.06
2019-04-16T06:31:10.303Z,50.39
2019-04-16T06:32:11.923Z,48.75
2019-04-16T06:33:09.738Z,48.65
2019-04-16T06:34:09.719Z,47.93
2019-04-16T06:35:09.706Z,49.34
2019-04-16T06:36:09.726Z,48.93
2019-04-16T06:37:09.721Z,48.09
2019-04-16T06:38:09.670Z,47.40
2019-04-16T06:39:09.654Z,47.27
2019-04-16T06:40:09.667Z,47.68
2019-04-16T06:41:09.666Z,46.56
2019-04-16T06:42:09.632Z,47.58
2019-04-16T06:43:09.624Z,47.27
2019-04-16T06:44:09.619Z,47.15
2019-04-16T06:45:09.588Z,48.48
2019-04-16T06:46:09.613Z,47.15
2019-04-16T06:47:11.274Z,47.45
2019-04-16T06:48:12.896Z,47.97
2019-04-16T06:49:09.557Z,47.74
2019-04-16T06:50:09.535Z,48.25
2019-04-16T06:51:12.477Z,48.43
2019-04-16T06:52:15.888Z,47.41
2019-04-16T06:53:10.505Z,47.11
2019-04-16T06:54:11.070Z,45.06
2019-04-16T06:55:09.487Z,46.19
2019-04-16T06:56:09.581Z,46.49
2019-04-16T06:57:11.931Z,46.57
2019-04-16T06:58:09.490Z,46.78
2019-04-16T06:59:09.434Z,46.67
2019-04-16T07:00:09.437Z,46.57
2019-04-16T07:01:09.439Z,46.45
2019-04-16T07:02:10.591Z,46.45
2019-04-16T07:03:09.394Z,46.14
2019-04-16T07:04:09.424Z,47.04
2019-04-16T07:05:09.375Z,45.00
2019-04-16T07:06:09.430Z,47.04
2019-04-16T07:07:09.492Z,46.53
2019-04-16T07:08:09.334Z,45.92
2019-04-16T07:09:09.363Z,46.73
2019-04-16T07:10:09.315Z,46.41
2019-04-16T07:11:09.304Z,42.94
2019-04-16T07:12:09.312Z,44.85
2019-04-16T07:13:11.249Z,43.96
2019-04-16T07:14:11.487Z,43.43
2019-04-16T07:15:10.281Z,44.14
2019-04-16T07:16:09.310Z,43.10
2019-04-16T07:17:09.244Z,43.71
2019-04-16T07:18:09.284Z,42.29
2019-04-16T07:19:11.244Z,42.68
2019-04-16T07:20:13.076Z,41.66
2019-04-16T07:21:09.198Z,41.75
2019-04-16T07:22:09.204Z,43.69
2019-04-16T07:23:09.188Z,41.45
2019-04-16T07:24:09.170Z,40.21
2019-04-16T07:25:09.162Z,39.70
2019-04-16T07:26:13.559Z,40.01
2019-04-16T07:27:10.266Z,40.92
2019-04-16T07:28:09.140Z,41.00
2019-04-16T07:29:09.132Z,42.33
2019-04-16T07:30:09.473Z,40.70
2019-04-16T07:31:13.390Z,39.58
2019-04-16T07:32:10.136Z,39.89
2019-04-16T07:33:09.076Z,40.80
2019-04-16T07:34:09.058Z,41.90
2019-04-16T07:35:09.039Z,41.60
2019-04-16T07:36:09.056Z,39.75
2019-04-16T07:37:09.022Z,39.64
2019-04-16T07:38:11.548Z,39.42
2019-04-16T07:39:09.002Z,39.53
2019-04-16T07:40:10.410Z,38.61
2019-04-16T07:41:11.922Z,39.62
2019-04-16T07:42:11.734Z,38.18
2019-04-16T07:43:09.978Z,38.81
2019-04-16T07:44:10.998Z,39.51
2019-04-16T07:45:12.540Z,37.80
2019-04-16T07:46:09.074Z,38.09
2019-04-16T07:47:08.906Z,39.22
2019-04-16T07:48:08.909Z,40.01
2019-04-16T07:49:08.910Z,38.49
2019-04-16T07:50:08.869Z,39.30
2019-04-16T07:51:08.855Z,38.29
2019-04-16T07:52:11.747Z,39.89
2019-04-16T07:53:13.339Z,39.69
2019-04-16T07:54:09.821Z,39.79
2019-04-16T07:55:08.847Z,39.59
2019-04-16T07:56:08.810Z,38.15
2019-04-16T07:57:09.006Z,38.96
2019-04-16T07:58:08.803Z,39.26
2019-04-16T07:59:08.795Z,38.76
2019-04-16T08:00:09.795Z,38.66
2019-04-16T08:01:12.212Z,38.35
2019-04-16T08:02:09.746Z,37.74
2019-04-16T08:03:08.731Z,37.24
2019-04-16T08:04:08.744Z,38.95
2019-04-16T08:05:09.694Z,37.22
2019-04-16T08:06:10.660Z,36.59
2019-04-16T08:07:08.687Z,37.40
2019-04-16T08:08:08.675Z,37.40
2019-04-16T08:09:08.732Z,36.19
2019-04-16T08:10:08.679Z,38.62
2019-04-16T08:11:08.655Z,37.40
2019-04-16T08:12:21.998Z,37.71
2019-04-16T08:13:09.646Z,38.12
2019-04-16T08:14:10.261Z,37.38
2019-04-16T08:15:14.190Z,35.68
2019-04-16T08:16:09.585Z,35.36
2019-04-16T08:17:08.570Z,37.38
2019-04-16T08:18:08.575Z,37.20
2019-04-16T08:19:08.607Z,39.01
2019-04-16T08:20:08.550Z,36.47
2019-04-16T08:21:12.084Z,37.18
2019-04-16T08:22:08.751Z,35.86
2019-04-16T08:23:08.509Z,37.38
2019-04-16T08:24:08.521Z,36.98
2019-04-16T08:25:08.492Z,36.36
2019-04-16T08:26:13.302Z,35.65
2019-04-16T08:27:10.759Z,36.15
2019-04-16T08:28:08.490Z,36.87
2019-04-16T08:29:08.479Z,36.87
2019-04-16T08:30:08.440Z,36.96
2019-04-16T08:31:12.216Z,36.34
2019-04-16T08:32:08.416Z,37.55
2019-04-16T08:33:10.640Z,34.82
2019-04-16T08:34:08.409Z,35.72
2019-04-16T08:35:08.385Z,35.51
2019-04-16T08:36:08.367Z,35.01
2019-04-16T08:37:08.784Z,33.49
2019-04-16T08:38:08.349Z,34.60
2019-04-16T08:39:08.344Z,35.19
2019-04-16T08:40:08.796Z,35.30
2019-04-16T08:41:08.312Z,33.89
2019-04-16T08:42:08.313Z,34.60
2019-04-16T08:43:08.310Z,34.30
2019-04-16T08:44:10.408Z,33.69
2019-04-16T08:45:08.983Z,34.79
2019-04-16T08:46:11.278Z,34.20
2019-04-16T08:47:11.525Z,35.41
2019-04-16T08:48:09.233Z,33.80
2019-04-16T08:49:08.226Z,35.61
2019-04-16T08:50:11.408Z,36.91
2019-04-16T08:51:08.281Z,34.77
2019-04-16T08:52:10.238Z,34.08
2019-04-16T08:53:13.322Z,37.32
2019-04-16T08:54:09.318Z,34.79
2019-04-16T08:55:08.197Z,35.88
2019-04-16T08:56:08.147Z,34.27
2019-04-16T08:57:08.434Z,36.08
2019-04-16T08:58:08.121Z,35.66
2019-04-16T08:59:10.203Z,36.88
2019-04-16T09:00:08.127Z,35.04
2019-04-16T09:01:08.109Z,32.72
2019-04-16T09:02:08.099Z,33.31
2019-04-16T09:03:08.073Z,33.72
2019-04-16T09:04:08.057Z,32.20
2019-04-16T09:05:11.241Z,33.11
2019-04-16T09:06:13.223Z,33.51
2019-04-16T09:07:12.074Z,33.22
2019-04-16T09:08:13.237Z,33.02
2019-04-16T09:09:14.480Z,33.93
2019-04-16T09:10:17.203Z,34.42
2019-04-16T09:11:21.757Z,33.92
2019-04-16T09:12:09.776Z,34.12
2019-04-16T09:13:08.003Z,34.62
2019-04-16T09:14:07.943Z,33.80
2019-04-16T09:15:07.930Z,32.29
2019-04-16T09:16:10.608Z,31.88
2019-04-16T09:17:09.698Z,32.47
2019-04-16T09:18:07.908Z,30.86
2019-04-16T09:19:07.918Z,32.47
2019-04-16T09:20:07.878Z,32.56
2019-04-16T09:21:10.266Z,34.27
2019-04-16T09:22:07.855Z,32.46
2019-04-16T09:23:07.842Z,33.67
2019-04-16T09:24:09.418Z,32.54
2019-04-16T09:25:12.543Z,32.04
2019-04-16T09:26:14.200Z,32.44
2019-04-16T09:27:12.195Z,30.73
2019-04-16T09:28:17.677Z,31.72
2019-04-16T09:29:10.276Z,31.73
2019-04-16T09:30:10.256Z,32.73
2019-04-16T09:31:08.771Z,32.53
2019-04-16T09:32:07.746Z,33.01
2019-04-16T09:33:07.736Z,32.51
2019-04-16T09:34:07.732Z,30.10
2019-04-16T09:35:10.587Z,32.71
2019-04-16T09:36:07.719Z,30.88
2019-04-16T09:37:07.709Z,32.50
2019-04-16T09:38:09.338Z,32.39
2019-04-16T09:39:07.796Z,32.29
2019-04-16T09:40:16.732Z,31.59
2019-04-16T09:41:08.659Z,30.79
2019-04-16T09:42:07.653Z,32.59
2019-04-16T09:43:16.537Z,32.20
2019-04-16T09:44:08.616Z,30.16
2019-04-16T09:45:07.603Z,30.27
2019-04-16T09:46:11.000Z,32.48
2019-04-16T09:47:08.602Z,31.98
2019-04-16T09:48:07.591Z,30.87
2019-04-16T09:49:07.570Z,31.96
2019-04-16T09:50:11.146Z,33.87
2019-04-16T09:51:07.546Z,29.13
2019-04-16T09:52:07.542Z,30.14
2019-04-16T09:53:07.531Z,31.04
2019-04-16T09:54:12.668Z,31.45
2019-04-16T09:55:08.490Z,30.94
2019-04-16T09:56:07.479Z,30.93
2019-04-16T09:57:07.557Z,30.52
2019-04-16T09:58:07.463Z,30.24
2019-04-16T09:59:07.510Z,29.62
2019-04-16T10:00:08.399Z,30.22
2019-04-16T10:01:07.446Z,30.83
2019-04-16T10:02:07.449Z,29.12
2019-04-16T10:03:07.428Z,30.32
2019-04-16T10:04:07.400Z,30.02
2019-04-16T10:05:07.411Z,29.32
2019-04-16T10:06:07.385Z,29.52
2019-04-16T10:07:07.410Z,29.50
2019-04-16T10:08:09.661Z,29.91
2019-04-16T10:09:08.445Z,30.61
2019-04-16T10:10:07.348Z,29.61
2019-04-16T10:11:07.339Z,29.71
2019-04-16T10:12:08.474Z,31.51
2019-04-16T10:13:07.318Z,29.39
2019-04-16T10:14:07.336Z,27.70
2019-04-16T10:15:07.308Z,30.71
2019-04-16T10:16:07.282Z,29.19
2019-04-16T10:17:07.314Z,30.19
2019-04-16T10:18:07.273Z,26.98
2019-04-16T10:19:08.390Z,27.79
2019-04-16T10:20:07.242Z,29.79
2019-04-16T10:21:07.218Z,29.49
2019-04-16T10:22:07.213Z,30.50
2019-04-16T10:23:07.204Z,30.50
2019-04-16T10:24:07.209Z,30.58
2019-04-16T10:25:07.197Z,28.58
2019-04-16T10:26:07.177Z,27.87
2019-04-16T10:27:07.168Z,28.48
2019-04-16T10:28:07.165Z,27.79
2019-04-16T10:29:07.146Z,29.60
2019-04-16T10:30:07.179Z,30.40
2019-04-16T10:31:07.114Z,32.20
2019-04-16T10:32:07.097Z,30.19
2019-04-16T10:33:07.109Z,28.28
2019-04-16T10:34:07.083Z,29.78
2019-04-16T10:35:07.067Z,28.58
2019-04-16T10:36:07.054Z,27.99
2019-04-16T10:37:07.108Z,27.48
2019-04-16T10:38:07.059Z,27.99
2019-04-16T10:39:07.060Z,29.21
2019-04-16T10:40:07.010Z,30.01
2019-04-16T10:41:07.006Z,29.91
2019-04-16T10:42:07.061Z,27.70
2019-04-16T10:43:06.987Z,28.00
2019-04-16T10:44:06.976Z,29.61
2019-04-16T10:45:06.969Z,28.22
2019-04-16T10:46:09.696Z,28.60
2019-04-16T10:47:06.950Z,27.90
2019-04-16T10:48:07.668Z,30.71
2019-04-16T10:49:06.979Z,29.91
2019-04-16T10:50:06.928Z,31.31
2019-04-16T10:51:06.879Z,29.69
2019-04-16T10:52:06.876Z,29.60
2019-04-16T10:53:06.863Z,29.60
2019-04-16T10:54:06.876Z,30.50
2019-04-16T10:55:09.418Z,27.69
2019-04-16T10:56:07.833Z,27.99
2019-04-16T10:57:10.124Z,29.90
2019-04-16T10:58:06.859Z,29.49
2019-04-16T10:59:06.847Z,29.79
2019-04-16T11:00:06.783Z,29.60
2019-04-16T11:01:06.994Z,29.99
2019-04-16T11:02:09.810Z,30.19
2019-04-16T11:03:06.788Z,29.90
2019-04-16T11:04:07.860Z,30.80
2019-04-16T11:05:06.738Z,27.99
2019-04-16T11:06:06.748Z,29.49
2019-04-16T11:07:06.705Z,29.69
2019-04-16T11:08:07.557Z,29.09
2019-04-16T11:09:06.822Z,30.30
2019-04-16T11:10:06.738Z,29.78
2019-04-16T11:11:06.687Z,28.88
2019-04-16T11:12:06.660Z,28.98
2019-04-16T11:13:06.653Z,28.28
2019-04-16T11:14:06.674Z,28.88
2019-04-16T11:15:06.665Z,28.58
2019-04-16T11:16:06.634Z,30.07
2019-04-16T11:17:06.594Z,27.87
2019-04-16T11:18:06.619Z,29.58
2019-04-16T11:19:06.602Z,30.28
2019-04-16T11:20:06.565Z,33.28
2019-04-16T11:21:06.563Z,31.17
2019-04-16T11:22:06.540Z,29.57
2019-04-16T11:23:07.602Z,30.67
2019-04-16T11:24:06.556Z,30.16
2019-04-16T11:25:06.573Z,31.07
2019-04-16T11:26:06.721Z,31.05
2019-04-16T11:27:06.510Z,32.26
2019-04-16T11:28:06.477Z,29.65
2019-04-16T11:29:06.528Z,29.55
2019-04-16T11:30:07.067Z,29.45
2019-04-16T11:31:06.473Z,30.07
2019-04-16T11:32:06.435Z,31.76
2019-04-16T11:33:06.455Z,30.35
2019-04-16T11:34:06.531Z,30.15
2019-04-16T11:35:06.398Z,29.75
2019-04-16T11:36:18.771Z,28.25
2019-04-16T11:37:09.135Z,27.76
2019-04-16T11:38:06.379Z,29.06
2019-04-16T11:39:06.354Z,28.46
2019-04-16T11:40:06.391Z,33.28
2019-04-16T11:41:06.376Z,30.16
2019-04-16T11:42:06.318Z,31.87
2019-04-16T11:43:06.345Z,32.15
2019-04-16T11:44:15.228Z,31.76
2019-04-16T11:45:07.342Z,30.95
2019-04-16T11:46:06.284Z,30.35
2019-04-16T11:47:06.299Z,32.04
2019-04-16T11:48:06.271Z,31.14
2019-04-16T11:49:06.296Z,29.74
2019-04-16T11:50:06.256Z,29.24
2019-04-16T11:51:06.226Z,29.03
2019-04-16T11:52:06.280Z,29.24
2019-04-16T11:53:06.254Z,31.54
2019-04-16T11:54:06.244Z,30.54
2019-04-16T11:55:06.242Z,32.23
2019-04-16T11:56:06.164Z,31.12
2019-04-16T11:57:06.186Z,28.42
2019-04-16T11:58:06.189Z,29.72
2019-04-16T11:59:06.142Z,29.82
2019-04-16T12:00:08.215Z,29.61
2019-04-16T12:01:06.149Z,31.23
2019-04-16T12:02:06.114Z,30.11
2019-04-16T12:03:06.140Z,30.02
2019-04-16T12:04:06.119Z,31.23
2019-04-16T12:05:06.113Z,30.62
2019-04-16T12:06:06.094Z,30.51
2019-04-16T12:07:06.399Z,30.62
2019-04-16T12:08:06.045Z,30.91
2019-04-16T12:09:06.041Z,31.21
2019-04-16T12:10:06.070Z,31.01
2019-04-16T12:11:06.252Z,29.81
2019-04-16T12:12:06.096Z,30.91
2019-04-16T12:13:06.258Z,29.91
2019-04-16T12:14:08.272Z,28.62
2019-04-16T12:15:05.998Z,29.02
2019-04-16T12:16:06.216Z,29.82
2019-04-16T12:17:06.015Z,31.32
2019-04-16T12:18:06.071Z,30.44
2019-04-16T12:19:06.129Z,29.93
2019-04-16T12:20:06.149Z,31.24
2019-04-16T12:21:06.012Z,32.03
2019-04-16T12:22:05.916Z,31.02
2019-04-16T12:23:06.233Z,31.93
2019-04-16T12:24:05.921Z,29.62
2019-04-16T12:25:05.926Z,30.02
2019-04-16T12:26:08.897Z,29.52
2019-04-16T12:27:05.870Z,29.52
2019-04-16T12:28:11.408Z,30.32
2019-04-16T12:29:06.862Z,29.62
2019-04-16T12:30:05.963Z,29.03
2019-04-16T12:31:05.936Z,29.03
2019-04-16T12:32:05.835Z,31.04
2019-04-16T12:33:08.783Z,33.14
2019-04-16T12:34:05.980Z,31.14
2019-04-16T12:35:05.793Z,29.84
2019-04-16T12:36:05.812Z,32.04
2019-04-16T12:37:05.837Z,32.04
2019-04-16T12:38:05.722Z,30.93
2019-04-16T12:39:05.735Z,31.02
2019-04-16T12:40:05.685Z,31.02
2019-04-16T12:41:05.699Z,30.62
2019-04-16T12:42:05.889Z,32.12
2019-04-16T12:43:05.708Z,30.91
2019-04-16T12:44:05.655Z,29.91
2019-04-16T12:45:08.506Z,29.01
2019-04-16T12:46:05.798Z,29.31
2019-04-16T12:47:05.743Z,28.11
2019-04-16T12:48:05.858Z,27.91
2019-04-16T12:49:05.626Z,26.91
2019-04-16T12:50:05.833Z,29.01
2019-04-16T12:51:05.563Z,29.90
2019-04-16T12:52:05.578Z,29.41